North Sutton, New Hampshire
Current Conditions -  °F | °C
As of 10:51 PM on Wednesday 17 Dec 2014 (Local Time) from KCON Reporting Station
Light Rain Light Rain  
Wind Chill: 32°   Ceiling: 3300
Heat Index: 39°   Visibility: 10mi
Dew Point: 34°   Wind: 10mph
Humidity: 82%   Direction: 290°WNW
Pressure: 29.71"   Gusts: NA
Location:  43.37°N, 71.94°W
Report Text: KCON 180351Z AUTO 29009KT 10SM -RA BKN033 OVC050 04/01 A2971 RMK AO2 RAB51 SLP064 P0000 T00390011
Loading
Personal Weather Stations






























Interactive Weather Map New forecast layout! Learn more

10-Day Weather Forecast

Advertisements
Track Severe Weather on mobile